sensor_id;sensor_type;location;lat;lon;timestamp;pressure;altitude;pressure_sealevel;temperature;humidity
39891;BME280;25564;53.312;9.790;2023-03-22T00:00:35;100244.78;;;8.18;100.00
39891;BME280;25564;53.312;9.790;2023-03-22T00:03:08;100178.41;;;7.81;100.00
39891;BME280;25564;53.312;9.790;2023-03-22T00:05:40;100223.59;;;8.20;100.00
39891;BME280;25564;53.312;9.790;2023-03-22T00:08:12;100183.41;;;7.98;100.00
39891;BME280;25564;53.312;9.790;2023-03-22T00:10:46;100159.66;;;7.97;100.00
39891;BME280;25564;53.312;9.790;2023-03-22T00:13:17;100218.72;;;8.49;100.00
39891;BME280;25564;53.312;9.790;2023-03-22T00:15:49;100224.59;;;8.65;100.00
39891;BME280;25564;53.312;9.790;2023-03-22T00:18:20;100213.97;;;8.68;100.00
39891;BME280;25564;53.312;9.790;2023-03-22T00:20:53;100116.81;;;8.30;100.00
39891;BME280;25564;53.312;9.790;2023-03-22T00:23:26;100198.81;;;8.78;100.00
39891;BME280;25564;53.312;9.790;2023-03-22T00:25:58;100186.44;;;8.78;100.00
39891;BME280;25564;53.312;9.790;2023-03-22T00:28:30;100202.97;;;8.91;100.00
39891;BME280;25564;53.312;9.790;2023-03-22T00:31:03;100197.56;;;8.97;100.00
39891;BME280;25564;53.312;9.790;2023-03-22T00:33:35;100176.50;;;8.91;100.00
39891;BME280;25564;53.312;9.790;2023-03-22T00:36:10;100114.56;;;8.57;100.00
39891;BME280;25564;53.312;9.790;2023-03-22T00:38:41;100197.31;;;9.09;100.00
39891;BME280;25564;53.312;9.790;2023-03-22T00:41:16;100204.22;;;9.18;100.00
39891;BME280;25564;53.312;9.790;2023-03-22T00:43:48;100200.66;;;9.19;100.00
39891;BME280;25564;53.312;9.790;2023-03-22T00:46:21;100176.25;;;9.05;100.00
39891;BME280;25564;53.312;9.790;2023-03-22T00:48:52;100179.66;;;9.10;100.00
39891;BME280;25564;53.312;9.790;2023-03-22T00:51:24;100114.22;;;8.75;100.00
39891;BME280;25564;53.312;9.790;2023-03-22T00:53:55;100178.72;;;9.12;100.00
39891;BME280;25564;53.312;9.790;2023-03-22T00:56:26;100135.00;;;8.93;100.00
39891;BME280;25564;53.312;9.790;2023-03-22T00:58:58;100181.06;;;9.28;100.00
39891;BME280;25564;53.312;9.790;2023-03-22T01:01:30;100195.75;;;9.41;100.00
39891;BME280;25564;53.312;9.790;2023-03-22T01:04:02;100187.06;;;9.36;100.00
39891;BME280;25564;53.312;9.790;2023-03-22T01:06:35;100191.34;;;9.41;100.00
39891;BME280;25564;53.312;9.790;2023-03-22T01:09:06;100188.59;;;9.46;100.00
39891;BME280;25564;53.312;9.790;2023-03-22T01:11:37;100171.94;;;9.41;100.00
39891;BME280;25564;53.312;9.790;2023-03-22T01:14:09;100170.09;;;9.44;100.00
39891;BME280;25564;53.312;9.790;2023-03-22T01:16:40;100163.84;;;9.47;100.00
39891;BME280;25564;53.312;9.790;2023-03-22T01:19:12;100074.88;;;9.01;100.00
39891;BME280;25564;53.312;9.790;2023-03-22T01:21:43;100148.94;;;9.43;100.00
39891;BME280;25564;53.312;9.790;2023-03-22T01:24:14;100125.38;;;9.32;100.00
39891;BME280;25564;53.312;9.790;2023-03-22T01:26:46;100155.81;;;9.51;100.00
39891;BME280;25564;53.312;9.790;2023-03-22T01:29:18;100148.84;;;9.47;100.00
39891;BME280;25564;53.312;9.790;2023-03-22T01:31:51;100157.50;;;9.54;100.00
39891;BME280;25564;53.312;9.790;2023-03-22T01:34:23;100147.97;;;9.47;100.00
39891;BME280;25564;53.312;9.790;2023-03-22T01:36:54;100056.56;;;8.91;100.00
39891;BME280;25564;53.312;9.790;2023-03-22T01:39:26;100150.56;;;9.48;100.00
39891;BME280;25564;53.312;9.790;2023-03-22T01:41:57;100053.72;;;9.00;100.00
39891;BME280;25564;53.312;9.790;2023-03-22T01:44:29;100093.59;;;9.32;100.00
39891;BME280;25564;53.312;9.790;2023-03-22T01:47:01;100121.38;;;9.51;100.00
39891;BME280;25564;53.312;9.790;2023-03-22T01:49:33;100117.78;;;9.54;100.00
39891;BME280;25564;53.312;9.790;2023-03-22T01:52:11;100028.78;;;9.10;100.00
39891;BME280;25564;53.312;9.790;2023-03-22T01:54:47;100097.34;;;9.59;100.00
39891;BME280;25564;53.312;9.790;2023-03-22T01:57:20;100099.91;;;9.64;100.00
39891;BME280;25564;53.312;9.790;2023-03-22T01:59:52;100097.19;;;9.67;100.00
39891;BME280;25564;53.312;9.790;2023-03-22T02:02:23;100090.03;;;9.70;100.00
39891;BME280;25564;53.312;9.790;2023-03-22T02:04:56;100083.91;;;9.68;100.00
39891;BME280;25564;53.312;9.790;2023-03-22T02:07:28;100030.59;;;9.45;100.00
39891;BME280;25564;53.312;9.790;2023-03-22T02:10:02;100089.88;;;9.76;100.00
39891;BME280;25564;53.312;9.790;2023-03-22T02:13:08;100090.50;;;9.88;100.00
39891;BME280;25564;53.312;9.790;2023-03-22T02:15:54;100091.69;;;9.74;100.00
39891;BME280;25564;53.312;9.790;2023-03-22T02:27:39;100075.38;;;9.56;100.00
39891;BME280;25564;53.312;9.790;2023-03-22T02:30:48;100058.63;;;9.54;100.00
39891;BME280;25564;53.312;9.790;2023-03-22T02:36:40;100063.28;;;9.44;100.00
39891;BME280;25564;53.312;9.790;2023-03-22T02:39:26;100048.41;;;9.38;100.00
39891;BME280;25564;53.312;9.790;2023-03-22T02:42:18;100016.16;;;9.23;100.00
39891;BME280;25564;53.312;9.790;2023-03-22T02:45:24;100000.69;;;9.04;100.00
39891;BME280;25564;53.312;9.790;2023-03-22T02:48:04;100060.66;;;9.42;100.00
39891;BME280;25564;53.312;9.790;2023-03-22T02:50:44;100025.84;;;9.24;100.00
39891;BME280;25564;53.312;9.790;2023-03-22T02:53:42;100064.88;;;9.51;100.00
39891;BME280;25564;53.312;9.790;2023-03-22T02:56:23;100048.59;;;9.32;100.00
39891;BME280;25564;53.312;9.790;2023-03-22T02:59:02;100045.03;;;9.33;100.00
39891;BME280;25564;53.312;9.790;2023-03-22T03:01:38;99978.75;;;8.99;100.00
39891;BME280;25564;53.312;9.790;2023-03-22T03:04:24;100064.03;;;9.49;100.00
39891;BME280;25564;53.312;9.790;2023-03-22T03:07:03;99986.69;;;8.99;100.00
39891;BME280;25564;53.312;9.790;2023-03-22T03:09:37;100041.38;;;9.37;100.00
39891;BME280;25564;53.312;9.790;2023-03-22T03:12:17;100051.84;;;9.42;100.00
39891;BME280;25564;53.312;9.790;2023-03-22T03:14:49;100050.13;;;9.41;100.00
39891;BME280;25564;53.312;9.790;2023-03-22T03:20:26;100066.63;;;9.52;100.00
39891;BME280;25564;53.312;9.790;2023-03-22T03:23:19;100018.72;;;9.26;100.00
39891;BME280;25564;53.312;9.790;2023-03-22T03:26:11;100060.44;;;9.51;100.00
39891;BME280;25564;53.312;9.790;2023-03-22T03:29:04;100043.91;;;9.42;100.00
39891;BME280;25564;53.312;9.790;2023-03-22T03:31:51;100050.94;;;9.43;100.00
39891;BME280;25564;53.312;9.790;2023-03-22T03:34:37;100025.81;;;9.25;100.00
39891;BME280;25564;53.312;9.790;2023-03-22T03:37:16;99967.41;;;8.94;100.00
39891;BME280;25564;53.312;9.790;2023-03-22T03:39:53;99982.19;;;9.03;100.00
39891;BME280;25564;53.312;9.790;2023-03-22T03:42:27;100040.56;;;9.35;100.00
39891;BME280;25564;53.312;9.790;2023-03-22T03:45:00;100000.47;;;9.13;100.00
39891;BME280;25564;53.312;9.790;2023-03-22T03:47:33;99972.56;;;9.00;100.00
39891;BME280;25564;53.312;9.790;2023-03-22T03:50:05;100046.50;;;9.45;100.00
39891;BME280;25564;53.312;9.790;2023-03-22T03:52:37;100074.47;;;9.57;100.00
39891;BME280;25564;53.312;9.790;2023-03-22T03:55:09;100047.38;;;9.44;100.00
39891;BME280;25564;53.312;9.790;2023-03-22T03:57:40;100040.25;;;9.47;100.00
39891;BME280;25564;53.312;9.790;2023-03-22T04:00:12;100043.69;;;9.51;100.00
39891;BME280;25564;53.312;9.790;2023-03-22T04:02:47;99963.81;;;8.97;100.00
39891;BME280;25564;53.312;9.790;2023-03-22T04:05:18;100012.47;;;9.30;100.00
39891;BME280;25564;53.312;9.790;2023-03-22T04:07:50;100036.88;;;9.41;100.00
39891;BME280;25564;53.312;9.790;2023-03-22T04:10:21;100061.28;;;9.54;100.00
39891;BME280;25564;53.312;9.790;2023-03-22T04:12:52;100043.72;;;9.49;100.00
39891;BME280;25564;53.312;9.790;2023-03-22T04:15:24;100049.91;;;9.50;100.00
39891;BME280;25564;53.312;9.790;2023-03-22T04:17:55;100034.06;;;9.47;100.00
39891;BME280;25564;53.312;9.790;2023-03-22T04:20:26;100039.34;;;9.48;100.00
39891;BME280;25564;53.312;9.790;2023-03-22T04:22:59;100048.13;;;9.50;100.00
39891;BME280;25564;53.312;9.790;2023-03-22T04:25:31;100038.50;;;9.46;100.00
39891;BME280;25564;53.312;9.790;2023-03-22T04:28:04;99963.66;;;9.04;100.00
39891;BME280;25564;53.312;9.790;2023-03-22T04:30:35;100037.59;;;9.47;100.00
39891;BME280;25564;53.312;9.790;2023-03-22T04:33:07;100020.97;;;9.41;100.00
39891;BME280;25564;53.312;9.790;2023-03-22T04:35:38;99964.47;;;9.06;100.00
39891;BME280;25564;53.312;9.790;2023-03-22T04:38:10;100035.84;;;9.46;100.00
39891;BME280;25564;53.312;9.790;2023-03-22T04:40:42;99951.53;;;8.94;100.00
39891;BME280;25564;53.312;9.790;2023-03-22T04:43:16;100023.88;;;9.32;100.00
39891;BME280;25564;53.312;9.790;2023-03-22T04:45:49;100022.97;;;9.33;100.00
39891;BME280;25564;53.312;9.790;2023-03-22T04:48:20;100014.41;;;9.22;100.00
39891;BME280;25564;53.312;9.790;2023-03-22T04:50:54;100017.03;;;9.23;100.00
39891;BME280;25564;53.312;9.790;2023-03-22T04:53:25;100027.66;;;9.22;100.00
39891;BME280;25564;53.312;9.790;2023-03-22T04:55:58;99976.47;;;8.84;100.00
39891;BME280;25564;53.312;9.790;2023-03-22T04:58:29;99954.75;;;8.68;100.00
39891;BME280;25564;53.312;9.790;2023-03-22T05:01:02;99959.16;;;8.69;100.00
39891;BME280;25564;53.312;9.790;2023-03-22T05:03:33;100020.13;;;9.03;100.00
39891;BME280;25564;53.312;9.790;2023-03-22T05:06:07;99978.31;;;8.79;100.00
39891;BME280;25564;53.312;9.790;2023-03-22T05:08:39;100013.13;;;9.01;100.00
39891;BME280;25564;53.312;9.790;2023-03-22T05:11:13;99991.28;;;8.91;100.00
39891;BME280;25564;53.312;9.790;2023-03-22T05:13:45;99999.84;;;9.02;100.00
39891;BME280;25564;53.312;9.790;2023-03-22T05:16:16;99983.22;;;8.97;100.00
39891;BME280;25564;53.312;9.790;2023-03-22T05:18:47;100012.00;;;9.11;100.00
39891;BME280;25564;53.312;9.790;2023-03-22T05:21:24;99966.56;;;8.92;100.00
39891;BME280;25564;53.312;9.790;2023-03-22T05:23:58;100000.47;;;9.13;100.00
39891;BME280;25564;53.312;9.790;2023-03-22T05:26:29;99965.59;;;8.96;100.00
39891;BME280;25564;53.312;9.790;2023-03-22T05:29:01;100009.03;;;9.25;100.00
39891;BME280;25564;53.312;9.790;2023-03-22T05:31:32;99944.72;;;8.84;100.00
39891;BME280;25564;53.312;9.790;2023-03-22T05:34:04;99992.56;;;9.12;100.00
39891;BME280;25564;53.312;9.790;2023-03-22T05:36:36;100002.00;;;9.24;100.00
39891;BME280;25564;53.312;9.790;2023-03-22T05:39:07;100000.31;;;9.21;100.00
39891;BME280;25564;53.312;9.790;2023-03-22T05:41:39;100019.41;;;9.34;100.00
39891;BME280;25564;53.312;9.790;2023-03-22T05:44:10;100013.22;;;9.35;100.00
39891;BME280;25564;53.312;9.790;2023-03-22T05:46:42;100014.03;;;9.37;100.00
39891;BME280;25564;53.312;9.790;2023-03-22T05:49:13;99945.19;;;9.01;100.00
39891;BME280;25564;53.312;9.790;2023-03-22T05:51:44;100008.56;;;9.43;100.00
39891;BME280;25564;53.312;9.790;2023-03-22T05:54:17;99994.56;;;9.38;100.00
39891;BME280;25564;53.312;9.790;2023-03-22T05:56:48;100003.25;;;9.44;100.00
39891;BME280;25564;53.312;9.790;2023-03-22T05:59:19;100003.13;;;9.49;100.00
39891;BME280;25564;53.312;9.790;2023-03-22T06:01:51;100002.16;;;9.53;100.00
39891;BME280;25564;53.312;9.790;2023-03-22T06:04:23;99996.75;;;9.58;100.00
39891;BME280;25564;53.312;9.790;2023-03-22T06:06:54;99942.59;;;9.35;100.00
39891;BME280;25564;53.312;9.790;2023-03-22T06:09:25;99990.25;;;9.69;100.00
39891;BME280;25564;53.312;9.790;2023-03-22T06:11:57;99919.47;;;9.40;100.00
39891;BME280;25564;53.312;9.790;2023-03-22T06:14:28;99997.41;;;10.00;100.00
39891;BME280;25564;53.312;9.790;2023-03-22T06:17:00;99987.72;;;9.99;100.00
39891;BME280;25564;53.312;9.790;2023-03-22T06:19:32;100014.69;;;10.14;100.00
39891;BME280;25564;53.312;9.790;2023-03-22T06:22:03;99963.88;;;9.99;100.00
39891;BME280;25564;53.312;9.790;2023-03-22T06:24:34;99990.69;;;10.21;100.00
39891;BME280;25564;53.312;9.790;2023-03-22T06:27:07;100001.69;;;10.38;100.00
39891;BME280;25564;53.312;9.790;2023-03-22T06:29:39;100000.53;;;10.46;100.00
39891;BME280;25564;53.312;9.790;2023-03-22T06:32:10;99955.97;;;10.30;100.00
39891;BME280;25564;53.312;9.790;2023-03-22T06:34:42;99998.13;;;10.68;100.00
39891;BME280;25564;53.312;9.790;2023-03-22T06:37:14;99981.38;;;10.66;100.00
39891;BME280;25564;53.312;9.790;2023-03-22T06:39:46;99991.78;;;10.74;100.00
39891;BME280;25564;53.312;9.790;2023-03-22T06:42:18;99971.56;;;10.70;100.00
39891;BME280;25564;53.312;9.790;2023-03-22T06:44:49;99993.25;;;10.84;100.00
39891;BME280;25564;53.312;9.790;2023-03-22T06:47:20;100001.75;;;10.95;100.00
39891;BME280;25564;53.312;9.790;2023-03-22T06:49:52;100006.16;;;10.96;100.00
39891;BME280;25564;53.312;9.790;2023-03-22T06:52:23;99986.72;;;10.94;100.00
39891;BME280;25564;53.312;9.790;2023-03-22T06:54:55;99991.84;;;11.00;100.00
39891;BME280;25564;53.312;9.790;2023-03-22T06:57:27;99969.84;;;10.97;100.00
39891;BME280;25564;53.312;9.790;2023-03-22T06:59:58;99957.59;;;10.93;100.00
39891;BME280;25564;53.312;9.790;2023-03-22T07:02:30;99985.16;;;11.17;99.94
39891;BME280;25564;53.312;9.790;2023-03-22T07:05:01;99990.69;;;11.37;100.00
39891;BME280;25564;53.312;9.790;2023-03-22T07:07:32;99975.72;;;11.34;100.00
39891;BME280;25564;53.312;9.790;2023-03-22T07:10:04;99931.31;;;11.11;99.87
39891;BME280;25564;53.312;9.790;2023-03-22T07:12:38;99939.81;;;11.23;99.70
39891;BME280;25564;53.312;9.790;2023-03-22T07:15:09;99906.56;;;11.11;99.54
39891;BME280;25564;53.312;9.790;2023-03-22T07:17:41;99987.25;;;11.60;99.37
39891;BME280;25564;53.312;9.790;2023-03-22T07:20:12;99973.31;;;11.53;99.40
39891;BME280;25564;53.312;9.790;2023-03-22T07:22:44;99954.59;;;11.56;99.16
39891;BME280;25564;53.312;9.790;2023-03-22T07:25:16;99974.25;;;11.78;98.99
39891;BME280;25564;53.312;9.790;2023-03-22T07:27:47;99980.00;;;11.91;98.99
39891;BME280;25564;53.312;9.790;2023-03-22T07:30:18;99889.97;;;11.56;98.74
39891;BME280;25564;53.312;9.790;2023-03-22T07:32:50;99912.13;;;11.81;98.67
39891;BME280;25564;53.312;9.790;2023-03-22T07:35:21;99967.38;;;12.23;98.62
39891;BME280;25564;53.312;9.790;2023-03-22T07:37:56;99946.19;;;12.20;98.18
39891;BME280;25564;53.312;9.790;2023-03-22T07:40:29;99987.56;;;12.52;98.31
39891;BME280;25564;53.312;9.790;2023-03-22T07:43:00;99935.91;;;12.34;98.22
39891;BME280;25564;53.312;9.790;2023-03-22T07:45:31;99963.25;;;12.61;97.86
39891;BME280;25564;53.312;9.790;2023-03-22T07:48:03;99943.88;;;12.57;97.65
39891;BME280;25564;53.312;9.790;2023-03-22T07:50:34;99949.84;;;12.64;97.55
39891;BME280;25564;53.312;9.790;2023-03-22T07:53:06;99923.69;;;12.52;97.08
39891;BME280;25564;53.312;9.790;2023-03-22T07:55:38;99875.81;;;12.28;97.13
39891;BME280;25564;53.312;9.790;2023-03-22T07:58:10;99931.19;;;12.64;97.00
39891;BME280;25564;53.312;9.790;2023-03-22T08:00:41;99863.69;;;12.21;96.84
39891;BME280;25564;53.312;9.790;2023-03-22T08:03:12;99919.63;;;12.65;96.98
39891;BME280;25564;53.312;9.790;2023-03-22T08:05:44;99839.38;;;12.30;96.99
39891;BME280;25564;53.312;9.790;2023-03-22T08:08:15;99914.31;;;12.87;96.78
39891;BME280;25564;53.312;9.790;2023-03-22T08:10:48;99874.88;;;12.74;96.52
39891;BME280;25564;53.312;9.790;2023-03-22T08:13:20;99817.16;;;12.53;96.26
39891;BME280;25564;53.312;9.790;2023-03-22T08:15:51;99883.78;;;12.95;96.05
39891;BME280;25564;53.312;9.790;2023-03-22T08:18:23;99884.72;;;12.94;95.65
39891;BME280;25564;53.312;9.790;2023-03-22T08:20:56;99904.34;;;13.14;95.55
39891;BME280;25564;53.312;9.790;2023-03-22T08:23:28;99859.16;;;12.90;95.73
39891;BME280;25564;53.312;9.790;2023-03-22T08:26:13;99858.53;;;13.05;95.54
39891;BME280;25564;53.312;9.790;2023-03-22T08:28:46;99889.00;;;13.42;95.24
39891;BME280;25564;53.312;9.790;2023-03-22T08:31:17;99901.38;;;13.63;94.91
39891;BME280;25564;53.312;9.790;2023-03-22T08:33:50;99884.19;;;13.70;95.22
39891;BME280;25564;53.312;9.790;2023-03-22T08:36:22;99810.09;;;13.38;94.80
39891;BME280;25564;53.312;9.790;2023-03-22T08:38:53;99872.97;;;13.83;94.48
39891;BME280;25564;53.312;9.790;2023-03-22T08:41:25;99867.03;;;13.76;94.33
39891;BME280;25564;53.312;9.790;2023-03-22T08:43:56;99839.06;;;13.66;94.23
39891;BME280;25564;53.312;9.790;2023-03-22T08:46:28;99835.59;;;13.64;93.98
39891;BME280;25564;53.312;9.790;2023-03-22T08:48:59;99801.09;;;13.40;94.22
39891;BME280;25564;53.312;9.790;2023-03-22T08:51:32;99844.84;;;13.75;94.18
39891;BME280;25564;53.312;9.790;2023-03-22T08:54:03;99863.66;;;14.12;94.24
39891;BME280;25564;53.312;9.790;2023-03-22T08:56:35;99804.53;;;14.02;93.91
39891;BME280;25564;53.312;9.790;2023-03-22T08:59:08;99813.91;;;14.29;93.49
39891;BME280;25564;53.312;9.790;2023-03-22T09:01:39;99829.50;;;14.38;93.68
39891;BME280;25564;53.312;9.790;2023-03-22T09:04:11;99849.84;;;14.60;93.46
39891;BME280;25564;53.312;9.790;2023-03-22T09:06:42;99861.06;;;14.85;93.40
39891;BME280;25564;53.312;9.790;2023-03-22T09:09:15;99789.53;;;14.56;92.88
39891;BME280;25564;53.312;9.790;2023-03-22T09:11:46;99848.31;;;15.09;92.58
39891;BME280;25564;53.312;9.790;2023-03-22T09:14:18;99833.63;;;15.18;92.64
39891;BME280;25564;53.312;9.790;2023-03-22T09:16:49;99850.91;;;15.28;92.61
39891;BME280;25564;53.312;9.790;2023-03-22T09:19:21;99861.31;;;15.51;91.97
39891;BME280;25564;53.312;9.790;2023-03-22T09:21:53;99787.72;;;15.27;91.91
39891;BME280;25564;53.312;9.790;2023-03-22T09:24:24;99847.16;;;15.66;91.16
39891;BME280;25564;53.312;9.790;2023-03-22T09:26:55;99841.50;;;15.55;90.72
39891;BME280;25564;53.312;9.790;2023-03-22T09:29:28;99803.50;;;15.49;90.75
39891;BME280;25564;53.312;9.790;2023-03-22T09:32:00;99810.94;;;15.77;90.43
39891;BME280;25564;53.312;9.790;2023-03-22T09:34:31;99771.06;;;15.72;90.01
39891;BME280;25564;53.312;9.790;2023-03-22T09:37:02;99783.19;;;15.95;90.03
39891;BME280;25564;53.312;9.790;2023-03-22T09:39:34;99813.13;;;16.50;89.17
39891;BME280;25564;53.312;9.790;2023-03-22T09:42:28;99843.78;;;17.08;86.96
39891;BME280;25564;53.312;9.790;2023-03-22T09:45:04;99823.38;;;17.35;87.83
39891;BME280;25564;53.312;9.790;2023-03-22T09:47:39;99830.56;;;17.35;87.23
39891;BME280;25564;53.312;9.790;2023-03-22T09:50:28;99820.59;;;17.07;86.12
39891;BME280;25564;53.312;9.790;2023-03-22T09:53:01;99839.78;;;17.15;87.08
39891;BME280;25564;53.312;9.790;2023-03-22T09:55:36;99804.16;;;17.13;86.54
39891;BME280;25564;53.312;9.790;2023-03-22T10:01:16;99806.06;;;17.11;84.20
39891;BME280;25564;53.312;9.790;2023-03-22T10:04:03;99748.63;;;16.85;85.08
39891;BME280;25564;53.312;9.790;2023-03-22T10:06:43;99811.75;;;17.20;85.07
39891;BME280;25564;53.312;9.790;2023-03-22T10:09:36;99814.13;;;16.95;83.38
39891;BME280;25564;53.312;9.790;2023-03-22T10:15:02;99770.72;;;16.43;84.58
39891;BME280;25564;53.312;9.790;2023-03-22T10:17:37;99798.44;;;16.57;84.47
39891;BME280;25564;53.312;9.790;2023-03-22T10:20:24;99788.50;;;16.59;82.91
39891;BME280;25564;53.312;9.790;2023-03-22T10:22:59;99769.00;;;16.42;83.88
39891;BME280;25564;53.312;9.790;2023-03-22T10:25:36;99820.47;;;16.62;83.84
39891;BME280;25564;53.312;9.790;2023-03-22T10:28:21;99798.53;;;16.40;83.12
39891;BME280;25564;53.312;9.790;2023-03-22T10:30:55;99831.53;;;16.72;84.35
39891;BME280;25564;53.312;9.790;2023-03-22T10:33:37;99762.34;;;16.49;85.53
39891;BME280;25564;53.312;9.790;2023-03-22T10:36:12;99775.56;;;16.52;84.13
39891;BME280;25564;53.312;9.790;2023-03-22T10:38:47;99792.13;;;16.43;83.04
39891;BME280;25564;53.312;9.790;2023-03-22T10:41:22;99813.06;;;16.52;83.03
39891;BME280;25564;53.312;9.790;2023-03-22T10:43:57;99812.97;;;16.69;82.90
39891;BME280;25564;53.312;9.790;2023-03-22T10:46:37;99822.38;;;16.76;82.44
39891;BME280;25564;53.312;9.790;2023-03-22T10:49:21;99815.13;;;16.78;81.51
39891;BME280;25564;53.312;9.790;2023-03-22T10:51:55;99823.75;;;16.83;82.28
39891;BME280;25564;53.312;9.790;2023-03-22T10:54:28;99830.69;;;16.72;82.09
39891;BME280;25564;53.312;9.790;2023-03-22T10:57:00;99818.56;;;16.64;81.65
39891;BME280;25564;53.312;9.790;2023-03-22T10:59:44;99761.72;;;16.44;80.37
39891;BME280;25564;53.312;9.790;2023-03-22T11:02:23;99831.19;;;16.78;80.94
39891;BME280;25564;53.312;9.790;2023-03-22T11:05:01;99815.56;;;16.71;81.27
39891;BME280;25564;53.312;9.790;2023-03-22T11:07:39;99758.09;;;16.45;80.66
39891;BME280;25564;53.312;9.790;2023-03-22T11:10:21;99822.72;;;16.86;80.35
39891;BME280;25564;53.312;9.790;2023-03-22T11:15:48;99754.72;;;16.57;79.67
39891;BME280;25564;53.312;9.790;2023-03-22T11:18:21;99757.22;;;16.60;80.81
39891;BME280;25564;53.312;9.790;2023-03-22T11:21:00;99798.00;;;16.81;80.27
39891;BME280;25564;53.312;9.790;2023-03-22T11:23:36;99807.66;;;16.99;80.44
39891;BME280;25564;53.312;9.790;2023-03-22T11:26:11;99766.78;;;16.64;80.00
39891;BME280;25564;53.312;9.790;2023-03-22T11:28:49;99833.25;;;16.73;79.72
39891;BME280;25564;53.312;9.790;2023-03-22T11:31:20;99818.06;;;16.58;79.47
39891;BME280;25564;53.312;9.790;2023-03-22T11:33:58;99841.31;;;16.73;79.34
39891;BME280;25564;53.312;9.790;2023-03-22T11:36:29;99847.88;;;16.83;79.73
39891;BME280;25564;53.312;9.790;2023-03-22T11:39:05;99828.75;;;16.89;79.39
39891;BME280;25564;53.312;9.790;2023-03-22T11:41:39;99771.50;;;16.45;78.64
39891;BME280;25564;53.312;9.790;2023-03-22T11:44:12;99795.06;;;16.70;78.97
39891;BME280;25564;53.312;9.790;2023-03-22T11:46:58;99761.56;;;16.47;78.73
39891;BME280;25564;53.312;9.790;2023-03-22T11:49:46;99821.06;;;16.83;78.02
39891;BME280;25564;53.312;9.790;2023-03-22T11:52:24;99808.03;;;16.77;78.84
39891;BME280;25564;53.312;9.790;2023-03-22T11:54:58;99785.53;;;16.64;78.50
39891;BME280;25564;53.312;9.790;2023-03-22T11:57:32;99823.41;;;16.89;78.10
39891;BME280;25564;53.312;9.790;2023-03-22T12:00:17;99804.56;;;16.91;78.15
39891;BME280;25564;53.312;9.790;2023-03-22T12:02:57;99817.09;;;16.90;77.03
39891;BME280;25564;53.312;9.790;2023-03-22T12:05:33;99782.44;;;16.72;77.85
39891;BME280;25564;53.312;9.790;2023-03-22T12:08:16;99811.97;;;17.02;76.98
39891;BME280;25564;53.312;9.790;2023-03-22T12:10:53;99809.56;;;16.97;77.63
39891;BME280;25564;53.312;9.790;2023-03-22T12:13:34;99781.50;;;16.73;77.38
39891;BME280;25564;53.312;9.790;2023-03-22T12:16:10;99804.97;;;16.99;77.99
39891;BME280;25564;53.312;9.790;2023-03-22T12:19:05;99815.47;;;17.18;76.40
39891;BME280;25564;53.312;9.790;2023-03-22T12:21:44;99788.25;;;17.10;77.90
39891;BME280;25564;53.312;9.790;2023-03-22T12:24:30;99802.38;;;16.97;76.28
39891;BME280;25564;53.312;9.790;2023-03-22T12:27:17;99774.31;;;16.73;76.73
39891;BME280;25564;53.312;9.790;2023-03-22T12:32:42;99819.25;;;16.84;76.76
39891;BME280;25564;53.312;9.790;2023-03-22T12:35:25;99739.97;;;16.34;76.63
39891;BME280;25564;53.312;9.790;2023-03-22T12:38:03;99807.09;;;16.62;77.62
39891;BME280;25564;53.312;9.790;2023-03-22T12:40:39;99751.88;;;16.28;77.43
39891;BME280;25564;53.312;9.790;2023-03-22T12:43:33;99820.72;;;16.74;77.39
39891;BME280;25564;53.312;9.790;2023-03-22T12:46:16;99816.69;;;16.66;77.35
39891;BME280;25564;53.312;9.790;2023-03-22T12:48:52;99767.94;;;16.28;77.86
39891;BME280;25564;53.312;9.790;2023-03-22T12:51:26;99778.22;;;16.20;77.53
39891;BME280;25564;53.312;9.790;2023-03-22T12:53:58;99812.69;;;16.42;77.78
39891;BME280;25564;53.312;9.790;2023-03-22T12:56:38;99805.44;;;16.28;77.06
39891;BME280;25564;53.312;9.790;2023-03-22T12:59:19;99818.22;;;16.23;77.00
39891;BME280;25564;53.312;9.790;2023-03-22T13:02:15;99737.16;;;15.73;77.58
39891;BME280;25564;53.312;9.790;2023-03-22T13:04:56;99792.28;;;16.08;78.31
39891;BME280;25564;53.312;9.790;2023-03-22T13:07:32;99815.44;;;16.09;78.40
39891;BME280;25564;53.312;9.790;2023-03-22T13:21:23;99833.31;;;15.41;79.58
39891;BME280;25564;53.312;9.790;2023-03-22T13:26:49;99826.69;;;14.96;79.99
39891;BME280;25564;53.312;9.790;2023-03-22T13:29:24;99773.97;;;14.47;80.43
39891;BME280;25564;53.312;9.790;2023-03-22T13:31:58;99809.47;;;14.49;80.87
39891;BME280;25564;53.312;9.790;2023-03-22T13:34:45;99830.97;;;14.46;81.34
39891;BME280;25564;53.312;9.790;2023-03-22T13:37:32;99783.91;;;14.24;81.43
39891;BME280;25564;53.312;9.790;2023-03-22T13:40:33;99787.59;;;14.22;81.63
39891;BME280;25564;53.312;9.790;2023-03-22T13:43:12;99769.47;;;13.91;82.41
39891;BME280;25564;53.312;9.790;2023-03-22T13:56:50;99819.66;;;14.01;83.38
39891;BME280;25564;53.312;9.790;2023-03-22T14:02:12;99824.19;;;13.99;83.70
39891;BME280;25564;53.312;9.790;2023-03-22T14:04:51;99827.75;;;14.00;84.09
39891;BME280;25564;53.312;9.790;2023-03-22T14:07:30;99811.81;;;13.98;83.89
39891;BME280;25564;53.312;9.790;2023-03-22T14:10:10;99830.19;;;14.04;84.19
39891;BME280;25564;53.312;9.790;2023-03-22T14:15:37;99788.03;;;13.73;83.58
39891;BME280;25564;53.312;9.790;2023-03-22T14:18:15;99826.44;;;13.90;84.39
39891;BME280;25564;53.312;9.790;2023-03-22T14:20:52;99812.63;;;13.80;84.17
39891;BME280;25564;53.312;9.790;2023-03-22T14:23:29;99817.03;;;13.81;84.20
39891;BME280;25564;53.312;9.790;2023-03-22T14:26:06;99766.91;;;13.50;84.51
39891;BME280;25564;53.312;9.790;2023-03-22T14:28:38;99738.16;;;13.38;83.94
39891;BME280;25564;53.312;9.790;2023-03-22T14:31:31;99818.56;;;13.87;84.08
39891;BME280;25564;53.312;9.790;2023-03-22T14:34:04;99776.72;;;13.68;84.54